createdAt,value
2019-05-11T00:01:57.423Z,25.90
2019-05-11T00:04:25.728Z,24.98
2019-05-11T00:06:54.043Z,27.65
2019-05-11T00:09:23.275Z,27.82
2019-05-11T00:11:51.612Z,26.93
2019-05-11T00:14:19.919Z,24.12
2019-05-11T00:16:48.525Z,24.80
2019-05-11T00:19:17.110Z,30.57
2019-05-11T00:21:45.783Z,26.48
2019-05-11T00:24:14.110Z,24.83
2019-05-11T00:26:42.434Z,25.88
2019-05-11T00:29:10.750Z,26.65
2019-05-11T00:31:39.115Z,27.45
2019-05-11T00:34:07.451Z,26.50
2019-05-11T00:36:35.755Z,26.95
2019-05-11T00:39:06.407Z,28.90
2019-05-11T00:41:34.963Z,25.72
2019-05-11T00:44:03.380Z,27.20
2019-05-11T00:46:31.686Z,28.17
2019-05-11T00:49:00.302Z,27.75
2019-05-11T00:51:28.627Z,28.30
2019-05-11T00:53:56.943Z,27.73
2019-05-11T00:56:25.506Z,30.45
2019-05-11T00:58:53.856Z,28.65
2019-05-11T01:01:22.840Z,29.98
2019-05-11T01:03:51.391Z,28.98
2019-05-11T01:06:19.755Z,31.82
2019-05-11T01:08:48.475Z,29.15
2019-05-11T01:11:16.815Z,31.05
2019-05-11T01:13:45.420Z,29.95
2019-05-11T01:16:14.003Z,30.77
2019-05-11T01:18:42.310Z,34.53
2019-05-11T01:21:10.967Z,33.00
2019-05-11T01:23:39.274Z,37.60
2019-05-11T01:26:07.619Z,37.28
2019-05-11T01:28:36.212Z,36.68
2019-05-11T01:31:04.619Z,35.07
2019-05-11T01:33:32.973Z,37.00
2019-05-11T01:36:01.555Z,37.20
2019-05-11T01:38:29.883Z,38.70
2019-05-11T01:40:59.266Z,35.48
2019-05-11T01:43:27.798Z,36.80
2019-05-11T01:45:56.490Z,36.35
2019-05-11T01:48:25.218Z,36.23
2019-05-11T01:50:53.502Z,36.85
2019-05-11T01:53:21.842Z,35.48
2019-05-11T01:55:50.135Z,34.58
2019-05-11T01:58:18.822Z,40.35
2019-05-11T02:00:47.206Z,35.73
2019-05-11T02:03:15.612Z,39.18
2019-05-11T02:05:43.938Z,38.20
2019-05-11T02:08:12.256Z,34.88
2019-05-11T02:10:40.622Z,36.63
2019-05-11T02:13:08.934Z,36.70
2019-05-11T02:15:37.410Z,38.33
2019-05-11T02:18:06.032Z,44.45
2019-05-11T02:20:34.753Z,39.58
2019-05-11T02:23:03.027Z,40.23
2019-05-11T02:25:31.347Z,42.58
2019-05-11T02:27:59.650Z,41.05
2019-05-11T02:30:28.649Z,40.97
2019-05-11T02:32:56.953Z,40.10
2019-05-11T02:35:25.298Z,40.63
2019-05-11T02:37:53.574Z,42.30
2019-05-11T02:40:22.098Z,40.65
2019-05-11T02:42:50.518Z,40.50
2019-05-11T02:45:31.203Z,40.05
2019-05-11T02:47:59.528Z,40.45
2019-05-11T02:50:27.910Z,38.98
2019-05-11T02:52:56.958Z,42.13
2019-05-11T02:55:25.382Z,42.70
2019-05-11T02:57:54.012Z,44.65
2019-05-11T03:00:25.768Z,39.80
2019-05-11T03:02:54.111Z,40.85
2019-05-11T03:05:22.416Z,38.42
2019-05-11T03:07:50.752Z,38.02
2019-05-11T03:10:19.383Z,40.45
2019-05-11T03:12:47.974Z,41.15
2019-05-11T03:15:16.295Z,43.20
2019-05-11T03:17:44.630Z,39.40
2019-05-11T03:20:12.968Z,40.52
2019-05-11T03:22:41.272Z,43.45
2019-05-11T03:25:09.599Z,43.07
2019-05-11T03:27:37.948Z,40.67
2019-05-11T03:30:09.261Z,43.00
2019-05-11T03:32:37.868Z,46.08
2019-05-11T03:35:06.383Z,42.27
2019-05-11T03:37:34.685Z,42.93
2019-05-11T03:40:03.194Z,41.23
2019-05-11T03:42:31.456Z,45.63
2019-05-11T03:44:59.818Z,42.35
2019-05-11T03:47:28.152Z,43.20
2019-05-11T03:49:56.730Z,42.45
2019-05-11T03:52:25.053Z,42.17
2019-05-11T03:54:53.373Z,45.92
2019-05-11T03:57:21.964Z,45.45
2019-05-11T03:59:50.292Z,42.33
2019-05-11T04:02:18.673Z,44.63
2019-05-11T04:04:47.021Z,46.18
2019-05-11T04:07:15.340Z,46.77
2019-05-11T04:09:43.640Z,48.00
2019-05-11T04:12:11.967Z,50.10
2019-05-11T04:14:40.342Z,50.63
2019-05-11T04:17:08.997Z,53.45
2019-05-11T04:19:37.337Z,49.13
2019-05-11T04:22:05.656Z,54.00
2019-05-11T04:24:33.990Z,51.75
2019-05-11T04:27:02.614Z,56.60
2019-05-11T04:29:30.945Z,53.58
2019-05-11T04:31:59.266Z,53.45
2019-05-11T04:34:27.579Z,54.30
2019-05-11T04:36:55.867Z,52.37
2019-05-11T04:39:24.201Z,52.37
2019-05-11T04:41:52.789Z,57.13
2019-05-11T04:44:21.107Z,52.75
2019-05-11T04:46:49.752Z,52.55
2019-05-11T04:49:18.067Z,54.73
2019-05-11T04:51:46.381Z,53.40
2019-05-11T04:54:14.987Z,54.03
2019-05-11T04:56:43.300Z,55.28
2019-05-11T04:59:11.773Z,52.20
2019-05-11T05:01:40.087Z,56.55
2019-05-11T05:04:13.662Z,55.58
2019-05-11T05:06:39.019Z,52.17
2019-05-11T05:09:07.896Z,52.35
2019-05-11T05:11:38.322Z,51.70
2019-05-11T05:14:08.201Z,56.02
2019-05-11T05:16:36.316Z,56.37
2019-05-11T05:19:04.677Z,54.13
2019-05-11T05:21:33.026Z,55.65
2019-05-11T05:24:01.662Z,57.90
2019-05-11T05:26:30.033Z,56.25
2019-05-11T05:28:58.308Z,55.55
2019-05-11T05:31:26.643Z,55.20
2019-05-11T05:33:55.278Z,58.25
2019-05-11T05:36:23.873Z,55.50
2019-05-11T05:38:52.208Z,57.70
2019-05-11T05:41:20.552Z,57.00
2019-05-11T05:43:48.866Z,61.00
2019-05-11T05:46:17.169Z,56.55
2019-05-11T05:48:45.520Z,53.00
2019-05-11T05:51:13.825Z,56.45
2019-05-11T05:53:42.418Z,53.70
2019-05-11T05:56:10.774Z,52.55
2019-05-11T05:58:39.072Z,53.13
2019-05-11T06:01:10.133Z,49.05
2019-05-11T06:03:37.436Z,47.58
2019-05-11T06:06:06.055Z,50.60
2019-05-11T06:08:34.365Z,45.55
2019-05-11T06:11:02.707Z,46.63
2019-05-11T06:13:44.652Z,43.90
2019-05-11T06:16:01.037Z,47.20
2019-05-11T06:18:29.345Z,42.60
2019-05-11T06:20:57.969Z,43.13
2019-05-11T06:23:26.550Z,40.78
2019-05-11T06:25:54.923Z,39.63
2019-05-11T06:28:23.223Z,44.30
2019-05-11T06:30:51.630Z,38.20
2019-05-11T06:33:19.919Z,40.30
2019-05-11T06:35:48.238Z,40.30
2019-05-11T06:38:16.556Z,34.08
2019-05-11T06:40:44.938Z,36.50
2019-05-11T06:43:13.263Z,35.68
2019-05-11T06:45:41.557Z,34.27
2019-05-11T06:48:09.883Z,36.45
2019-05-11T06:50:38.195Z,34.00
2019-05-11T06:53:06.510Z,34.80
2019-05-11T06:55:35.155Z,35.30
2019-05-11T06:58:03.465Z,30.12
2019-05-11T07:00:31.869Z,28.40
2019-05-11T07:03:00.179Z,26.75
2019-05-11T07:05:28.882Z,30.13
2019-05-11T07:07:57.190Z,28.87
2019-05-11T07:10:25.577Z,29.50
2019-05-11T07:12:53.883Z,25.08
2019-05-11T07:15:22.204Z,28.55
2019-05-11T07:17:50.497Z,29.42
2019-05-11T07:20:18.873Z,25.25
2019-05-11T07:22:47.219Z,27.63
2019-05-11T07:25:15.543Z,29.90
2019-05-11T07:27:44.188Z,28.62
2019-05-11T07:30:12.990Z,26.00
2019-05-11T07:32:41.314Z,26.25
2019-05-11T07:35:09.677Z,28.15
2019-05-11T07:37:38.599Z,30.23
2019-05-11T07:40:08.247Z,24.25
2019-05-11T07:42:38.006Z,22.13
2019-05-11T07:45:08.898Z,26.48
2019-05-11T07:47:38.116Z,24.43
2019-05-11T07:50:08.381Z,25.40
2019-05-11T07:52:37.832Z,25.85
2019-05-11T07:55:08.489Z,26.20
2019-05-11T07:57:38.958Z,25.80
2019-05-11T08:00:08.942Z,25.70
2019-05-11T08:02:38.706Z,25.20
2019-05-11T08:05:08.658Z,23.05
2019-05-11T08:07:37.903Z,26.95
2019-05-11T08:10:08.203Z,22.85
2019-05-11T08:12:38.990Z,25.43
2019-05-11T08:15:12.376Z,23.27
2019-05-11T08:17:38.210Z,24.57
2019-05-11T08:20:08.418Z,26.20
2019-05-11T08:22:37.705Z,24.98
2019-05-11T08:25:09.256Z,21.30
2019-05-11T08:27:37.839Z,24.55
2019-05-11T08:30:09.574Z,21.40
2019-05-11T08:32:38.696Z,25.00
2019-05-11T08:35:08.799Z,21.70
2019-05-11T08:37:38.834Z,21.30
2019-05-11T08:40:08.065Z,22.70
2019-05-11T08:42:37.900Z,22.98
2019-05-11T08:45:19.479Z,21.37
2019-05-11T08:47:37.717Z,25.68
2019-05-11T08:50:08.046Z,24.43
2019-05-11T08:52:38.645Z,18.12
2019-05-11T08:55:08.367Z,20.75
2019-05-11T08:57:38.724Z,22.25
2019-05-11T09:00:08.495Z,18.70
2019-05-11T09:02:38.367Z,23.85
2019-05-11T09:05:08.201Z,20.77
2019-05-11T09:07:38.447Z,26.17
2019-05-11T09:10:08.124Z,22.45
2019-05-11T09:12:38.187Z,20.23
2019-05-11T09:15:08.787Z,21.57
2019-05-11T09:17:38.272Z,18.70
2019-05-11T09:20:08.707Z,20.20
2019-05-11T09:22:38.163Z,20.23
2019-05-11T09:25:08.851Z,22.20
2019-05-11T09:27:37.783Z,20.70
2019-05-11T09:30:08.314Z,20.60
2019-05-11T09:32:38.510Z,18.15
2019-05-11T09:35:08.325Z,16.65
2019-05-11T09:37:38.121Z,20.15
2019-05-11T09:40:07.879Z,19.30
2019-05-11T09:42:38.808Z,22.60
2019-05-11T09:45:08.193Z,23.65
2019-05-11T09:47:38.664Z,19.32
2019-05-11T09:50:08.744Z,19.65
2019-05-11T09:52:38.484Z,21.55
2019-05-11T09:55:08.930Z,21.25
2019-05-11T09:57:38.153Z,22.77
2019-05-11T10:00:08.757Z,21.45
2019-05-11T10:02:38.557Z,24.00
2019-05-11T10:05:08.274Z,22.22
2019-05-11T10:07:38.116Z,20.73
2019-05-11T10:10:09.287Z,23.95
2019-05-11T10:12:38.119Z,18.83
2019-05-11T10:15:08.312Z,21.25
2019-05-11T10:17:38.316Z,23.55
2019-05-11T10:20:09.183Z,21.12
2019-05-11T10:22:38.438Z,26.23
2019-05-11T10:25:08.904Z,21.75
2019-05-11T10:27:38.333Z,24.52
2019-05-11T10:30:10.072Z,21.05
2019-05-11T10:32:39.021Z,24.95
2019-05-11T10:35:08.175Z,21.37
2019-05-11T10:37:38.888Z,24.07
2019-05-11T10:40:09.349Z,20.50
2019-05-11T10:42:37.941Z,21.55
2019-05-11T10:45:09.062Z,23.50
2019-05-11T10:47:38.331Z,21.23
2019-05-11T10:50:08.681Z,26.40
2019-05-11T10:52:38.011Z,25.20
2019-05-11T10:55:08.693Z,26.25
2019-05-11T10:57:38.655Z,25.55
2019-05-11T11:00:09.761Z,24.30
2019-05-11T11:02:38.651Z,20.85
2019-05-11T11:05:08.261Z,18.55
2019-05-11T11:07:38.440Z,16.65
2019-05-11T11:10:08.865Z,15.23
2019-05-11T11:12:38.505Z,17.70
2019-05-11T11:15:07.963Z,15.70
2019-05-11T11:17:38.243Z,15.43
2019-05-11T11:20:08.781Z,13.35
2019-05-11T11:22:43.641Z,19.57
2019-05-11T11:25:07.893Z,17.87
2019-05-11T11:27:38.098Z,20.15
2019-05-11T11:30:09.132Z,21.35
2019-05-11T11:32:38.311Z,25.90
2019-05-11T11:35:08.495Z,29.53
2019-05-11T11:37:38.669Z,24.80
2019-05-11T11:40:10.221Z,23.95
2019-05-11T11:42:38.530Z,21.90
2019-05-11T11:45:08.660Z,23.10
2019-05-11T11:47:38.484Z,23.77
2019-05-11T11:50:09.250Z,20.80
2019-05-11T11:52:38.311Z,21.45
2019-05-11T11:55:08.451Z,18.17
2019-05-11T11:57:38.002Z,15.30
2019-05-11T12:00:09.120Z,12.82
2019-05-11T12:02:38.810Z,15.10
2019-05-11T12:05:08.789Z,10.32
2019-05-11T12:07:38.650Z,11.68
2019-05-11T12:10:08.343Z,9.23
2019-05-11T12:12:38.695Z,12.68
2019-05-11T12:15:08.839Z,9.08
2019-05-11T12:17:37.792Z,9.60
2019-05-11T12:20:08.918Z,8.78
2019-05-11T12:22:38.645Z,8.58
2019-05-11T12:25:08.072Z,9.85
2019-05-11T12:27:38.290Z,8.20
2019-05-11T12:30:09.407Z,9.85
2019-05-11T12:32:39.619Z,8.65
2019-05-11T12:35:09.228Z,9.23
2019-05-11T12:37:37.860Z,8.23
2019-05-11T12:40:08.458Z,10.40
2019-05-11T12:42:38.082Z,7.20
2019-05-11T12:45:08.270Z,10.13
2019-05-11T12:47:38.529Z,7.50
2019-05-11T12:50:08.053Z,12.00
2019-05-11T12:52:38.252Z,7.87
2019-05-11T12:55:09.349Z,10.50
2019-05-11T12:57:38.581Z,6.97
2019-05-11T13:00:08.636Z,9.15
2019-05-11T13:02:38.774Z,10.77
2019-05-11T13:05:08.712Z,9.48
2019-05-11T13:07:39.298Z,10.13
2019-05-11T13:10:08.288Z,12.78
2019-05-11T13:12:38.651Z,11.70
2019-05-11T13:15:08.339Z,8.18
2019-05-11T13:17:38.391Z,10.67
2019-05-11T13:20:08.662Z,9.33
2019-05-11T13:22:38.110Z,9.40
2019-05-11T13:25:08.594Z,10.63
2019-05-11T13:27:38.680Z,11.87
2019-05-11T13:30:10.415Z,10.28
2019-05-11T13:32:39.116Z,8.90
2019-05-11T13:35:09.113Z,7.60
2019-05-11T13:37:38.699Z,9.15
2019-05-11T13:40:08.257Z,8.55
2019-05-11T13:42:38.597Z,14.85
2019-05-11T13:45:08.752Z,9.93
2019-05-11T13:47:50.832Z,10.78
2019-05-11T13:50:07.770Z,9.28
2019-05-11T13:52:38.403Z,8.30
2019-05-11T13:55:07.804Z,9.43
2019-05-11T13:57:38.008Z,8.98
2019-05-11T14:00:08.469Z,10.40
2019-05-11T14:02:37.994Z,10.20
2019-05-11T14:05:08.734Z,9.50
2019-05-11T14:07:38.120Z,14.15
2019-05-11T14:10:08.304Z,11.97
2019-05-11T14:12:38.516Z,9.00
2019-05-11T14:15:08.767Z,12.20
2019-05-11T14:17:37.994Z,10.65
2019-05-11T14:20:09.048Z,11.55
2019-05-11T14:22:38.639Z,10.43
2019-05-11T14:25:08.159Z,11.33
2019-05-11T14:27:38.857Z,9.98
2019-05-11T14:30:08.646Z,10.60
2019-05-11T14:32:38.818Z,11.65
2019-05-11T14:35:12.001Z,10.10
2019-05-11T14:37:38.139Z,8.68
2019-05-11T14:40:08.748Z,8.63
2019-05-11T14:42:38.194Z,12.75
2019-05-11T14:45:08.462Z,8.53
2019-05-11T14:47:38.762Z,11.43
2019-05-11T14:50:08.596Z,14.35
2019-05-11T14:52:38.992Z,10.53
2019-05-11T14:55:08.283Z,11.43
2019-05-11T14:57:36.691Z,11.65
2019-05-11T15:00:08.286Z,11.73
2019-05-11T15:02:48.584Z,12.70
2019-05-11T15:05:18.331Z,13.13
2019-05-11T15:07:47.935Z,9.75
2019-05-11T15:10:18.710Z,11.93
2019-05-11T15:12:48.938Z,11.05
2019-05-11T15:15:18.627Z,11.28
2019-05-11T15:17:49.244Z,11.73
2019-05-11T15:20:17.856Z,10.63
2019-05-11T15:22:48.654Z,10.63
2019-05-11T15:25:19.302Z,9.15
2019-05-11T15:27:48.764Z,19.07
2019-05-11T15:30:18.349Z,11.33
2019-05-11T15:32:48.225Z,10.38
2019-05-11T15:35:18.481Z,10.88
2019-05-11T15:37:47.917Z,10.60
2019-05-11T15:40:18.792Z,12.47
2019-05-11T15:42:48.562Z,11.97
2019-05-11T15:45:19.000Z,11.57
2019-05-11T15:47:48.806Z,9.83
2019-05-11T15:50:19.774Z,12.57
2019-05-11T15:52:48.693Z,13.45
2019-05-11T15:55:18.843Z,14.18
2019-05-11T15:57:48.267Z,13.23
2019-05-11T16:00:17.977Z,11.05
2019-05-11T16:02:48.742Z,12.18
2019-05-11T16:05:18.370Z,14.58
2019-05-11T16:07:49.063Z,15.40
2019-05-11T16:10:18.732Z,8.25
2019-05-11T16:12:48.540Z,9.30
2019-05-11T16:15:19.183Z,8.60
2019-05-11T16:17:48.609Z,8.70
2019-05-11T16:20:18.505Z,8.30
2019-05-11T16:22:48.019Z,7.00
2019-05-11T16:25:19.291Z,5.85
2019-05-11T16:27:46.795Z,5.28
2019-05-11T16:30:15.263Z,7.05
2019-05-11T16:32:43.576Z,4.70
2019-05-11T16:35:12.133Z,4.37
2019-05-11T16:37:40.781Z,6.58
2019-05-11T16:40:09.684Z,5.30
2019-05-11T16:42:38.671Z,5.10
2019-05-11T16:45:08.541Z,6.47
2019-05-11T16:47:39.097Z,7.65
2019-05-11T16:50:08.858Z,4.87
2019-05-11T16:52:38.650Z,4.25
2019-05-11T16:55:07.861Z,7.85
2019-05-11T16:57:38.186Z,3.73
2019-05-11T17:00:08.855Z,4.08
2019-05-11T17:02:38.202Z,5.22
2019-05-11T17:05:07.946Z,5.15
2019-05-11T17:07:37.696Z,5.85
2019-05-11T17:10:08.487Z,5.65
2019-05-11T17:12:38.570Z,3.70
2019-05-11T17:15:09.063Z,4.55
2019-05-11T17:17:37.381Z,3.75
2019-05-11T17:20:08.058Z,5.03
2019-05-11T17:22:38.778Z,3.70
2019-05-11T17:25:08.573Z,5.15
2019-05-11T17:27:37.779Z,3.65
2019-05-11T17:30:10.420Z,5.85
2019-05-11T17:32:38.717Z,3.52
2019-05-11T17:35:08.421Z,4.53
2019-05-11T17:37:38.056Z,2.90
2019-05-11T17:40:09.016Z,3.52
2019-05-11T17:42:37.831Z,6.00
2019-05-11T17:45:08.121Z,6.00
2019-05-11T17:47:38.843Z,8.00
2019-05-11T17:50:08.356Z,3.67
2019-05-11T17:52:38.494Z,6.03
2019-05-11T17:55:06.678Z,3.13
2019-05-11T17:57:34.980Z,6.17
2019-05-11T18:00:07.338Z,5.00
2019-05-11T18:02:35.812Z,2.53
2019-05-11T18:05:05.035Z,10.03
2019-05-11T18:07:33.352Z,7.05
2019-05-11T18:10:01.674Z,3.90
2019-05-11T18:12:30.267Z,5.42
2019-05-11T18:14:58.896Z,6.35
2019-05-11T18:17:27.248Z,7.35
2019-05-11T18:19:59.246Z,6.95
2019-05-11T18:22:28.356Z,9.15
2019-05-11T18:24:58.117Z,7.53
2019-05-11T18:27:27.851Z,4.72
2019-05-11T18:29:58.067Z,3.35
2019-05-11T18:32:28.434Z,7.03
2019-05-11T18:34:58.831Z,4.35
2019-05-11T18:37:28.066Z,6.50
2019-05-11T18:39:58.508Z,2.90
2019-05-11T18:42:27.297Z,6.65
2019-05-11T18:44:58.008Z,2.80
2019-05-11T18:47:25.626Z,7.03
2019-05-11T18:49:53.938Z,4.15
2019-05-11T18:52:22.282Z,5.03
2019-05-11T18:54:50.925Z,4.15
2019-05-11T18:57:19.228Z,6.60
2019-05-11T18:59:48.423Z,5.23
2019-05-11T19:02:17.084Z,6.30
2019-05-11T19:04:45.371Z,4.37
2019-05-11T19:07:17.025Z,4.00
2019-05-11T19:09:44.045Z,5.22
2019-05-11T19:12:12.807Z,4.40
2019-05-11T19:14:41.111Z,4.35
2019-05-11T19:17:09.495Z,7.10
2019-05-11T19:19:38.045Z,9.20
2019-05-11T19:22:08.802Z,14.85
2019-05-11T19:24:38.313Z,11.28
2019-05-11T19:27:08.129Z,15.30
2019-05-11T19:29:37.963Z,6.33
2019-05-11T19:32:10.768Z,5.83
2019-05-11T19:34:38.864Z,4.40
2019-05-11T19:37:08.646Z,3.37
2019-05-11T19:39:38.497Z,5.33
2019-05-11T19:42:07.830Z,5.45
2019-05-11T19:44:38.479Z,3.35
2019-05-11T19:47:08.748Z,5.85
2019-05-11T19:49:38.405Z,7.17
2019-05-11T19:52:08.614Z,5.25
2019-05-11T19:54:38.235Z,6.73
2019-05-11T19:57:08.331Z,4.47
2019-05-11T19:59:38.682Z,3.08
2019-05-11T20:02:08.454Z,4.40
2019-05-11T20:04:38.702Z,5.00
2019-05-11T20:07:08.710Z,4.20
2019-05-11T20:09:38.708Z,4.22
2019-05-11T20:12:07.235Z,4.85
2019-05-11T20:14:37.295Z,6.35
2019-05-11T20:17:05.549Z,4.22
2019-05-11T20:19:33.923Z,4.70
2019-05-11T20:22:02.689Z,4.75
2019-05-11T20:24:31.261Z,4.43
2019-05-11T20:26:59.649Z,5.10
2019-05-11T20:29:28.229Z,5.60
2019-05-11T20:31:57.858Z,4.83
2019-05-11T20:34:28.849Z,6.92
2019-05-11T20:36:58.675Z,3.37
2019-05-11T20:39:28.614Z,5.30
2019-05-11T20:41:58.136Z,5.50
2019-05-11T20:44:28.690Z,7.97
2019-05-11T20:46:58.054Z,4.90
2019-05-11T20:49:28.269Z,5.10
2019-05-11T20:51:57.997Z,7.58
2019-05-11T20:54:28.152Z,6.42
2019-05-11T20:56:58.499Z,4.60
2019-05-11T20:59:28.967Z,3.75
2019-05-11T21:01:58.651Z,8.45
2019-05-11T21:04:28.204Z,5.60
2019-05-11T21:06:57.941Z,4.15
2019-05-11T21:09:28.771Z,8.18
2019-05-11T21:11:58.909Z,7.70
2019-05-11T21:14:28.821Z,5.12
2019-05-11T21:16:58.651Z,7.40
2019-05-11T21:19:28.334Z,5.62
2019-05-11T21:21:58.976Z,4.12
2019-05-11T21:24:28.113Z,6.05
2019-05-11T21:26:58.473Z,7.70
2019-05-11T21:29:28.323Z,7.20
2019-05-11T21:31:58.990Z,7.22
2019-05-11T21:34:28.001Z,4.00
2019-05-11T21:36:56.407Z,6.65
2019-05-11T21:39:24.706Z,6.83
2019-05-11T21:41:53.002Z,5.47
2019-05-11T21:44:21.398Z,7.43
2019-05-11T21:46:50.059Z,3.55
2019-05-11T21:49:18.625Z,6.10
2019-05-11T21:51:49.375Z,7.95
2019-05-11T21:54:17.153Z,4.93
2019-05-11T21:56:45.741Z,7.08
2019-05-11T21:59:14.027Z,8.13
2019-05-11T22:01:42.371Z,3.40
2019-05-11T22:04:11.319Z,5.60
2019-05-11T22:06:40.076Z,4.35
2019-05-11T22:09:08.860Z,7.63
2019-05-11T22:11:38.125Z,6.90
2019-05-11T22:14:08.248Z,5.20
2019-05-11T22:16:38.751Z,3.52
2019-05-11T22:19:08.912Z,4.12
2019-05-11T22:21:36.779Z,3.85
2019-05-11T22:24:05.089Z,7.78
2019-05-11T22:26:33.394Z,9.80
2019-05-11T22:29:02.023Z,6.10
2019-05-11T22:31:30.595Z,6.25
2019-05-11T22:33:59.190Z,4.80
2019-05-11T22:36:28.224Z,3.35
2019-05-11T22:38:58.725Z,6.10
2019-05-11T22:41:26.823Z,6.62
2019-05-11T22:43:55.128Z,6.50
2019-05-11T22:46:23.745Z,7.10
2019-05-11T22:48:52.060Z,3.83
2019-05-11T22:51:20.356Z,3.95
2019-05-11T22:53:50.528Z,4.12
2019-05-11T22:56:20.099Z,4.12
2019-05-11T22:58:49.966Z,3.87
2019-05-11T23:01:18.837Z,8.08
2019-05-11T23:03:47.630Z,4.03
2019-05-11T23:06:17.985Z,5.30
2019-05-11T23:08:48.361Z,4.40
2019-05-11T23:11:17.965Z,5.00
2019-05-11T23:13:47.932Z,6.42
2019-05-11T23:16:18.020Z,4.80
2019-05-11T23:18:48.107Z,5.40
2019-05-11T23:21:16.507Z,5.65
2019-05-11T23:23:44.792Z,5.30
2019-05-11T23:26:13.474Z,7.97
2019-05-11T23:28:41.771Z,5.60
2019-05-11T23:31:10.067Z,6.70
2019-05-11T23:33:38.575Z,7.00
2019-05-11T23:36:07.790Z,6.67
2019-05-11T23:38:38.655Z,6.97
2019-05-11T23:41:08.277Z,4.90
2019-05-11T23:43:38.410Z,4.85
2019-05-11T23:46:08.307Z,5.37
2019-05-11T23:48:38.613Z,6.30
2019-05-11T23:51:08.725Z,7.95
2019-05-11T23:53:38.772Z,5.25
2019-05-11T23:56:07.181Z,7.42
2019-05-11T23:58:35.481Z,5.00
